Time;durP1;ratioP1;P1;durP2;ratioP2;P2;SDS_P1;SDS_P2;PMS_P1;PMS_P2;Temp;Humidity;BMP_temperature;BMP_pressure;BME280_temperature;BME280_humidity;BME280_pressure;Samples;Min_cycle;Max_cycle;Signal;HPM_P1;HPM_P2
2024/01/01 00:01:41;;;;;;;51.50;29.58;;;18.90;62.60;;;;;;5058637;28;20033;-47
2024/01/01 00:04:08;;;;;;;56.90;30.98;;;18.80;62.70;;;;;;5060581;28;20077;-47
2024/01/01 00:06:34;;;;;;;52.85;30.40;;;18.80;62.90;;;;;;5058051;28;20460;-50
2024/01/01 00:09:00;;;;;;;46.83;29.33;;;18.80;62.70;;;;;;5063319;28;20111;-49
2024/01/01 00:11:25;;;;;;;49.08;28.77;;;18.80;62.80;;;;;;5061985;28;20182;-47
2024/01/01 00:13:51;;;;;;;46.75;27.80;;;18.70;62.80;;;;;;5061641;28;20382;-45
2024/01/01 00:16:16;;;;;;;49.05;28.02;;;18.70;62.80;;;;;;5060749;28;20041;-49
2024/01/01 00:18:42;;;;;;;49.53;27.95;;;18.70;62.90;;;;;;5062776;28;20031;-51
2024/01/01 00:21:08;;;;;;;44.50;27.33;;;18.70;62.80;;;;;;5064658;28;20496;-47
2024/01/01 00:23:33;;;;;;;41.88;28.45;;;18.70;62.90;;;;;;5061208;28;20031;-50
2024/01/01 00:25:59;;;;;;;48.80;28.23;;;18.70;62.90;;;;;;5059855;28;20028;-46
2024/01/01 00:28:25;;;;;;;48.60;27.65;;;18.70;63.00;;;;;;5044943;28;20127;-47
2024/01/01 00:30:50;;;;;;;44.47;27.85;;;18.60;63.00;;;;;;5063532;28;20028;-49
2024/01/01 00:33:16;;;;;;;45.28;27.80;;;18.60;63.10;;;;;;5064350;28;20120;-47
2024/01/01 00:35:41;;;;;;;42.88;27.60;;;18.60;63.10;;;;;;5060608;28;20025;-47
2024/01/01 00:38:07;;;;;;;40.92;26.80;;;18.60;63.20;;;;;;5064167;28;20032;-48
2024/01/01 00:40:32;;;;;;;43.10;26.77;;;18.50;63.30;;;;;;5044688;28;20116;-48
2024/01/01 00:42:58;;;;;;;44.03;26.73;;;18.50;63.30;;;;;;5063565;28;20445;-49
2024/01/01 00:45:23;;;;;;;43.45;27.65;;;18.50;63.40;;;;;;5059655;28;20546;-47
2024/01/01 00:47:49;;;;;;;42.83;25.63;;;18.50;63.40;;;;;;5059671;28;20064;-47
2024/01/01 00:50:14;;;;;;;46.20;28.85;;;18.50;63.50;;;;;;5066484;28;20056;-49
2024/01/01 00:52:40;;;;;;;38.88;24.80;;;18.50;63.50;;;;;;5062705;28;20051;-46
2024/01/01 00:55:06;;;;;;;42.97;25.80;;;18.40;64.20;;;;;;5061732;28;20097;-49
2024/01/01 00:57:32;;;;;;;41.22;25.80;;;18.40;63.60;;;;;;5057103;28;20033;-47
2024/01/01 00:59:58;;;;;;;39.25;24.33;;;18.40;63.70;;;;;;5063526;28;20035;-48
2024/01/01 01:02:23;;;;;;;37.80;23.85;;;18.40;63.80;;;;;;5062143;28;20020;-47
2024/01/01 01:04:49;;;;;;;38.58;23.75;;;18.40;63.70;;;;;;5062238;28;20032;-50
2024/01/01 01:07:14;;;;;;;34.83;23.33;;;18.30;63.70;;;;;;5058770;28;20032;-48
2024/01/01 01:09:40;;;;;;;36.80;23.35;;;18.30;63.80;;;;;;5060596;28;20048;-47
2024/01/01 01:12:06;;;;;;;34.90;24.02;;;18.30;63.70;;;;;;5061613;28;20032;-48
2024/01/01 01:14:31;;;;;;;32.47;23.00;;;18.30;63.70;;;;;;5060504;28;20070;-47
2024/01/01 01:16:56;;;;;;;31.98;22.65;;;18.30;63.70;;;;;;5060774;28;20436;-45
2024/01/01 01:19:22;;;;;;;33.25;22.10;;;18.30;63.70;;;;;;5058855;28;20056;-46
2024/01/01 01:21:47;;;;;;;35.63;21.05;;;18.30;63.70;;;;;;5062279;28;20591;-51
2024/01/01 01:24:18;;;;;;;33.28;22.60;;;18.30;63.70;;;;;;5059924;28;20029;-48
2024/01/01 01:26:43;;;;;;;32.92;21.45;;;18.30;63.70;;;;;;5060516;28;20127;-48
2024/01/01 01:29:09;;;;;;;32.60;21.75;;;18.30;63.80;;;;;;5060045;28;20175;-46
2024/01/01 01:31:35;;;;;;;33.17;21.90;;;18.30;63.80;;;;;;5065113;28;20025;-50
2024/01/01 01:34:01;;;;;;;32.22;20.90;;;18.30;63.80;;;;;;5063273;28;20025;-51
2024/01/01 01:36:26;;;;;;;34.30;21.83;;;18.30;63.80;;;;;;5061800;28;20326;-49
2024/01/01 01:38:52;;;;;;;29.73;20.00;;;18.30;63.80;;;;;;5061408;28;20029;-47
2024/01/01 01:41:18;;;;;;;29.23;19.65;;;18.30;63.80;;;;;;5060793;28;20394;-47
2024/01/01 01:43:43;;;;;;;31.95;21.52;;;18.30;63.80;;;;;;5063766;28;20173;-48
2024/01/01 01:46:10;;;;;;;27.45;19.98;;;18.30;63.80;;;;;;5062538;28;20025;-46
2024/01/01 01:48:36;;;;;;;28.33;19.13;;;18.20;63.70;;;;;;5060571;28;20811;-50
2024/01/01 01:51:02;;;;;;;28.83;19.48;;;18.20;63.70;;;;;;5058305;28;20028;-49
2024/01/01 01:53:30;;;;;;;25.98;17.88;;;18.20;63.80;;;;;;5060633;28;20079;-47
2024/01/01 01:56:02;;;;;;;24.77;16.98;;;18.20;63.70;;;;;;5042519;28;20159;-51
2024/01/01 01:58:28;;;;;;;28.48;17.17;;;18.20;63.70;;;;;;5058208;28;20036;-50
2024/01/01 02:00:54;;;;;;;30.25;18.42;;;18.20;63.70;;;;;;5041071;28;20029;-47
2024/01/01 02:03:20;;;;;;;25.83;17.60;;;18.20;63.70;;;;;;5059609;28;20482;-47
2024/01/01 02:05:46;;;;;;;27.30;16.65;;;18.20;63.70;;;;;;5042128;28;20031;-48
2024/01/01 02:08:12;;;;;;;25.08;17.13;;;18.20;63.70;;;;;;5044217;28;20240;-49
2024/01/01 02:10:37;;;;;;;22.58;16.27;;;18.20;63.60;;;;;;5057929;28;20033;-48
2024/01/01 02:13:03;;;;;;;26.63;16.00;;;18.20;63.60;;;;;;5061476;28;20032;-48
2024/01/01 02:15:28;;;;;;;21.08;15.23;;;18.20;63.60;;;;;;5059841;28;20024;-47
2024/01/01 02:17:54;;;;;;;27.13;15.90;;;18.20;63.60;;;;;;5059124;28;20047;-47
2024/01/01 02:20:20;;;;;;;25.55;15.27;;;18.20;63.50;;;;;;5058711;28;20027;-46
2024/01/01 02:22:45;;;;;;;22.02;15.43;;;18.20;63.50;;;;;;5058106;28;20578;-47
2024/01/01 02:25:12;;;;;;;23.65;15.10;;;18.20;63.50;;;;;;5042970;28;20047;-44
2024/01/01 02:27:38;;;;;;;23.00;14.77;;;18.20;63.50;;;;;;5038629;28;20063;-48
2024/01/01 02:30:10;;;;;;;20.58;14.27;;;18.20;63.50;;;;;;5060087;28;20029;-47
2024/01/01 02:32:38;;;;;;;19.27;14.25;;;18.10;63.30;;;;;;5058298;28;20028;-45
2024/01/01 02:35:08;;;;;;;20.88;14.35;;;18.20;63.40;;;;;;5061561;28;20562;-48
2024/01/01 02:37:35;;;;;;;18.92;13.75;;;18.20;63.40;;;;;;5060156;28;20040;-46
2024/01/01 02:40:01;;;;;;;19.92;13.27;;;18.20;63.40;;;;;;5061451;28;20029;-47
2024/01/01 02:42:28;;;;;;;17.33;13.07;;;18.10;63.40;;;;;;5057487;28;20021;-48
2024/01/01 02:44:54;;;;;;;18.15;12.98;;;18.10;63.40;;;;;;5060883;28;20028;-49
2024/01/01 02:47:19;;;;;;;21.33;14.73;;;18.10;63.40;;;;;;5045460;28;20234;-45
2024/01/01 02:49:45;;;;;;;19.40;12.98;;;18.10;63.40;;;;;;5060334;28;20477;-49
2024/01/01 02:52:10;;;;;;;18.08;12.90;;;18.10;63.40;;;;;;5042311;28;20055;-46
2024/01/01 02:54:36;;;;;;;17.02;12.00;;;18.10;63.30;;;;;;5036971;28;20088;-49
2024/01/01 02:57:02;;;;;;;18.52;11.85;;;18.10;63.40;;;;;;5061051;28;20060;-50
2024/01/01 02:59:27;;;;;;;17.27;11.70;;;18.10;63.40;;;;;;5042310;28;20083;-47
2024/01/01 03:01:53;;;;;;;15.70;12.02;;;18.10;63.40;;;;;;5051068;28;20502;-47
2024/01/01 03:04:18;;;;;;;15.90;10.85;;;18.10;63.40;;;;;;5058106;28;20025;-46
2024/01/01 03:06:44;;;;;;;19.08;11.73;;;18.10;63.40;;;;;;5054954;28;20119;-49
2024/01/01 03:09:09;;;;;;;16.52;12.00;;;18.10;63.30;;;;;;5059927;28;20041;-48
2024/01/01 03:11:35;;;;;;;17.08;11.60;;;18.10;63.30;;;;;;5057556;28;20374;-46
2024/01/01 03:14:00;;;;;;;15.40;10.98;;;18.10;63.40;;;;;;5057397;28;20078;-49
2024/01/01 03:16:26;;;;;;;15.35;10.93;;;18.10;63.30;;;;;;5059029;28;20024;-45
2024/01/01 03:18:51;;;;;;;14.27;11.10;;;18.00;63.30;;;;;;5058830;28;20120;-49
2024/01/01 03:21:17;;;;;;;14.48;10.48;;;18.10;63.30;;;;;;5060534;28;20568;-49
2024/01/01 03:23:42;;;;;;;15.45;10.73;;;18.10;63.30;;;;;;5058954;28;20040;-48
2024/01/01 03:26:08;;;;;;;15.20;10.32;;;18.00;63.30;;;;;;5059686;28;20107;-49
2024/01/01 03:28:34;;;;;;;12.70;9.52;;;18.10;63.30;;;;;;5039411;28;20039;-47
2024/01/01 03:31:00;;;;;;;14.35;10.30;;;18.00;63.20;;;;;;5062297;28;20025;-47
2024/01/01 03:33:27;;;;;;;15.27;9.57;;;18.10;63.30;;;;;;5060362;28;20413;-47
2024/01/01 03:35:52;;;;;;;14.25;9.90;;;18.00;63.20;;;;;;5063365;28;20033;-47
2024/01/01 03:38:18;;;;;;;13.23;9.43;;;18.10;63.20;;;;;;5062466;28;20044;-52
2024/01/01 03:40:44;;;;;;;15.23;10.57;;;18.10;63.20;;;;;;5060872;28;20044;-53
2024/01/01 03:43:09;;;;;;;11.18;8.85;;;18.00;63.10;;;;;;5062082;28;20047;-45
2024/01/01 03:45:35;;;;;;;14.05;9.32;;;18.10;63.20;;;;;;5060299;28;20025;-46
2024/01/01 03:48:00;;;;;;;13.23;9.68;;;18.10;63.10;;;;;;5061798;28;20036;-46
2024/01/01 03:50:26;;;;;;;12.25;8.73;;;18.10;63.00;;;;;;5060348;28;20102;-47
2024/01/01 03:52:51;;;;;;;16.38;9.07;;;18.10;63.00;;;;;;5063015;28;20153;-48
2024/01/01 03:55:17;;;;;;;11.88;8.75;;;18.10;63.10;;;;;;5060712;28;20021;-48
2024/01/01 03:57:42;;;;;;;10.73;8.10;;;18.10;63.10;;;;;;5061256;28;20119;-47
2024/01/01 04:00:11;;;;;;;13.05;8.45;;;18.10;63.10;;;;;;5060054;28;20169;-47
2024/01/01 04:02:37;;;;;;;14.07;9.00;;;18.10;63.10;;;;;;5056609;28;20045;-49
2024/01/01 04:05:04;;;;;;;13.50;8.27;;;18.10;63.10;;;;;;5058392;28;20658;-47
2024/01/01 04:07:30;;;;;;;14.98;8.27;;;18.10;63.10;;;;;;5056915;28;20024;-47
2024/01/01 04:09:55;;;;;;;11.30;8.13;;;18.10;63.20;;;;;;5061343;28;20055;-48
2024/01/01 04:12:21;;;;;;;11.88;7.72;;;18.10;63.20;;;;;;5037695;28;20707;-49
2024/01/01 04:14:46;;;;;;;10.75;8.32;;;18.00;63.10;;;;;;5059138;28;20032;-48
2024/01/01 04:17:12;;;;;;;10.32;7.03;;;18.00;63.10;;;;;;5057134;28;20407;-52
2024/01/01 04:19:37;;;;;;;12.75;8.20;;;18.10;63.10;;;;;;5060755;28;20069;-46
2024/01/01 04:22:03;;;;;;;12.55;7.72;;;18.00;63.10;;;;;;5061721;28;20166;-46
2024/01/01 04:24:29;;;;;;;11.38;7.15;;;18.00;63.10;;;;;;5052504;28;20033;-48
2024/01/01 04:26:54;;;;;;;8.85;7.18;;;18.00;63.10;;;;;;5044781;28;20051;-51
2024/01/01 04:29:20;;;;;;;8.48;6.75;;;18.00;63.10;;;;;;5060760;28;20036;-52
2024/01/01 04:31:46;;;;;;;11.07;7.28;;;18.00;63.10;;;;;;5061052;28;20505;-46
2024/01/01 04:34:11;;;;;;;10.07;7.22;;;18.00;63.80;;;;;;5063270;28;20082;-49
2024/01/01 04:36:39;;;;;;;10.40;7.50;;;18.00;63.10;;;;;;5061223;28;20047;-48
2024/01/01 04:39:05;;;;;;;9.60;6.22;;;18.00;63.10;;;;;;5060078;28;20402;-52
2024/01/01 04:41:30;;;;;;;11.20;7.38;;;18.00;63.10;;;;;;5062028;28;20028;-49
2024/01/01 04:43:56;;;;;;;9.38;7.00;;;18.00;63.10;;;;;;5062041;28;20025;-45
2024/01/01 04:46:21;;;;;;;9.30;6.95;;;18.00;63.00;;;;;;5062957;28;20115;-46
2024/01/01 04:48:47;;;;;;;9.30;6.57;;;18.00;63.10;;;;;;5059974;28;20659;-50
2024/01/01 04:51:12;;;;;;;9.55;6.00;;;18.00;63.10;;;;;;5063620;28;20036;-45
2024/01/01 04:53:38;;;;;;;9.23;6.28;;;18.00;63.00;;;;;;5063239;28;20082;-46
2024/01/01 04:56:05;;;;;;;8.90;6.55;;;18.00;63.00;;;;;;5059860;28;20040;-49
2024/01/01 04:58:31;;;;;;;9.02;6.18;;;18.00;63.00;;;;;;5058906;28;20033;-49
2024/01/01 05:00:57;;;;;;;7.47;5.65;;;18.00;63.00;;;;;;5065361;28;20024;-54
2024/01/01 05:03:22;;;;;;;7.30;6.05;;;18.00;63.00;;;;;;5061025;28;20144;-47
2024/01/01 05:05:48;;;;;;;8.88;6.35;;;18.00;62.90;;;;;;5060595;28;20115;-48
2024/01/01 05:08:14;;;;;;;9.77;6.57;;;18.10;62.80;;;;;;5061862;28;20028;-50
2024/01/01 05:10:40;;;;;;;8.30;6.07;;;18.20;62.60;;;;;;5059084;28;20029;-52
2024/01/01 05:13:07;;;;;;;9.25;6.40;;;18.20;62.30;;;;;;5062371;28;20639;-49
2024/01/01 05:15:33;;;;;;;8.95;6.15;;;18.30;62.30;;;;;;5060056;28;20025;-51
2024/01/01 05:17:58;;;;;;;8.02;5.70;;;18.40;62.00;;;;;;5043412;28;20032;-48
2024/01/01 05:20:25;;;;;;;9.45;6.38;;;18.40;61.80;;;;;;5061235;28;20582;-50
2024/01/01 05:22:51;;;;;;;9.30;6.00;;;18.50;61.60;;;;;;5062167;28;20029;-47
2024/01/01 05:25:16;;;;;;;9.02;5.75;;;18.60;61.50;;;;;;5061069;28;20388;-49
2024/01/01 05:27:42;;;;;;;7.50;5.63;;;18.70;61.30;;;;;;5061017;28;20040;-49
2024/01/01 05:30:09;;;;;;;8.02;5.28;;;18.70;61.10;;;;;;5059901;28;20031;-46
2024/01/01 05:32:34;;;;;;;8.60;5.82;;;18.80;61.00;;;;;;5059307;28;20153;-49
2024/01/01 05:35:00;;;;;;;6.57;4.90;;;18.80;60.90;;;;;;5058502;28;20048;-55
2024/01/01 05:37:26;;;;;;;9.45;6.15;;;18.80;60.90;;;;;;5042970;28;20033;-53
2024/01/01 05:39:52;;;;;;;8.60;5.93;;;18.80;60.80;;;;;;5060322;28;20181;-45
2024/01/01 05:42:18;;;;;;;6.75;5.50;;;18.80;60.70;;;;;;5062356;28;20032;-45
2024/01/01 05:44:44;;;;;;;6.88;5.40;;;18.90;60.60;;;;;;5062964;28;20024;-47
2024/01/01 05:47:09;;;;;;;7.50;5.32;;;18.90;60.70;;;;;;5063538;28;20031;-49
2024/01/01 05:49:35;;;;;;;7.10;5.65;;;18.90;60.70;;;;;;5061540;28;20054;-55
2024/01/01 05:52:00;;;;;;;6.18;4.95;;;18.90;60.60;;;;;;5078321;22;20032;-47
2024/01/01 05:54:25;;;;;;;8.88;5.85;;;18.90;60.70;;;;;;5076988;28;20024;-48
2024/01/01 05:56:51;;;;;;;8.98;5.57;;;18.80;60.70;;;;;;5057970;28;20043;-48
2024/01/01 05:59:16;;;;;;;6.40;5.00;;;18.80;60.80;;;;;;5081695;28;20078;-48
2024/01/01 06:01:42;;;;;;;10.20;5.38;;;18.80;60.80;;;;;;5074887;28;20040;-50
2024/01/01 06:04:07;;;;;;;8.60;5.18;;;18.80;60.90;;;;;;5070372;28;20032;-48
2024/01/01 06:06:35;;;;;;;9.85;4.82;;;18.70;60.90;;;;;;5073629;28;20028;-48
2024/01/01 06:09:01;;;;;;;8.50;5.63;;;18.70;60.90;;;;;;5080446;28;20527;-47
2024/01/01 06:11:27;;;;;;;6.63;4.97;;;18.70;61.00;;;;;;5079520;28;20040;-48
2024/01/01 06:13:52;;;;;;;6.95;5.40;;;18.70;60.90;;;;;;5069847;28;20028;-48
2024/01/01 06:16:18;;;;;;;8.35;5.63;;;18.70;61.00;;;;;;5075273;28;20135;-48
2024/01/01 06:18:44;;;;;;;7.30;5.00;;;18.60;61.00;;;;;;5081001;28;20173;-49
2024/01/01 06:21:09;;;;;;;6.45;5.10;;;18.60;61.10;;;;;;5079368;28;20540;-48
2024/01/01 06:23:35;;;;;;;9.23;6.03;;;18.60;61.10;;;;;;5073634;28;20042;-47
2024/01/01 06:26:01;;;;;;;8.07;5.38;;;18.50;61.20;;;;;;5073373;28;20031;-48
2024/01/01 06:28:26;;;;;;;7.15;5.25;;;18.50;61.30;;;;;;5072629;28;20119;-48
2024/01/01 06:30:52;;;;;;;6.63;4.85;;;18.50;61.30;;;;;;5080018;28;20028;-48
2024/01/01 06:33:18;;;;;;;10.05;5.40;;;18.50;61.30;;;;;;5073589;28;20025;-47
2024/01/01 06:35:43;;;;;;;7.20;5.03;;;18.50;61.30;;;;;;5072697;28;20032;-48
2024/01/01 06:38:09;;;;;;;6.70;4.82;;;18.50;61.20;;;;;;5077010;28;20584;-49
2024/01/01 06:40:34;;;;;;;6.72;5.05;;;18.50;61.10;;;;;;5079558;28;20614;-49
2024/01/01 06:43:00;;;;;;;8.52;5.18;;;18.50;61.20;;;;;;5077879;28;20020;-48
2024/01/01 06:45:25;;;;;;;6.82;5.03;;;18.50;61.20;;;;;;5076054;28;20048;-48
2024/01/01 06:47:51;;;;;;;5.78;4.55;;;18.40;61.20;;;;;;5071008;28;20113;-48
2024/01/01 06:50:16;;;;;;;6.78;4.75;;;18.40;61.30;;;;;;5076166;28;20043;-48
2024/01/01 06:52:42;;;;;;;8.98;5.00;;;18.40;61.40;;;;;;5077828;28;20052;-47
2024/01/01 06:55:07;;;;;;;6.35;4.85;;;18.40;61.40;;;;;;5077096;28;20028;-47
2024/01/01 06:57:33;;;;;;;7.22;4.50;;;18.30;61.40;;;;;;5073267;28;20406;-47
2024/01/01 06:59:59;;;;;;;6.93;4.72;;;18.40;61.60;;;;;;5079745;28;20039;-48
2024/01/01 07:02:25;;;;;;;8.30;5.70;;;18.30;62.20;;;;;;5079400;28;20112;-46
2024/01/01 07:04:51;;;;;;;6.82;4.60;;;18.30;61.70;;;;;;5075871;28;20036;-50
2024/01/01 07:07:17;;;;;;;6.75;5.15;;;18.30;61.80;;;;;;5073755;28;20489;-47
2024/01/01 07:09:43;;;;;;;6.45;4.82;;;18.20;61.80;;;;;;5075143;28;20056;-51
2024/01/01 07:12:27;;;;;;;7.35;5.00;;;18.20;61.80;;;;;;5076048;28;20032;-48
2024/01/01 07:14:53;;;;;;;6.03;4.47;;;18.20;61.90;;;;;;5076971;28;20036;-49
2024/01/01 07:17:20;;;;;;;8.10;4.97;;;18.20;61.90;;;;;;5058299;28;20037;-47
2024/01/01 07:19:45;;;;;;;6.82;4.75;;;18.10;62.50;;;;;;5067861;28;20097;-52
2024/01/01 07:22:11;;;;;;;6.90;5.05;;;18.20;61.90;;;;;;5075047;28;20028;-49
2024/01/01 07:24:38;;;;;;;6.20;4.93;;;18.10;61.90;;;;;;5074496;28;20037;-52
2024/01/01 07:27:04;;;;;;;6.90;4.82;;;18.20;62.00;;;;;;5068740;28;20493;-46
2024/01/01 07:29:33;;;;;;;6.55;4.82;;;18.10;62.00;;;;;;5068098;28;20063;-47
2024/01/01 07:31:58;;;;;;;6.40;4.72;;;18.10;62.00;;;;;;5075136;28;20060;-46
2024/01/01 07:34:25;;;;;;;6.82;4.80;;;18.10;62.00;;;;;;5076069;28;20055;-47
2024/01/01 07:36:51;;;;;;;6.45;5.07;;;18.10;62.00;;;;;;5077076;28;20397;-46
2024/01/01 07:39:19;;;;;;;6.68;4.75;;;18.10;62.00;;;;;;5076098;28;20037;-47
2024/01/01 07:41:49;;;;;;;7.10;4.85;;;18.10;62.00;;;;;;5073668;28;20040;-49
2024/01/01 07:44:15;;;;;;;5.43;4.22;;;18.10;62.00;;;;;;5059570;28;20051;-46
2024/01/01 07:46:42;;;;;;;7.25;4.60;;;18.10;62.00;;;;;;5072349;28;20125;-48
2024/01/01 07:49:07;;;;;;;5.22;4.32;;;18.10;62.00;;;;;;5072334;28;20024;-47
2024/01/01 07:51:34;;;;;;;7.45;4.53;;;18.10;62.00;;;;;;5071905;28;20029;-52
2024/01/01 07:53:59;;;;;;;7.47;4.30;;;18.10;62.00;;;;;;5073481;28;20423;-49
2024/01/01 07:56:26;;;;;;;8.27;4.88;;;18.10;62.10;;;;;;5079457;28;20115;-49
2024/01/01 07:58:53;;;;;;;7.18;4.63;;;18.10;62.10;;;;;;5073474;28;20168;-48
2024/01/01 08:01:19;;;;;;;8.55;5.40;;;18.10;62.10;;;;;;5078619;28;20393;-47
2024/01/01 08:03:44;;;;;;;6.82;4.28;;;18.10;62.10;;;;;;5075150;28;20032;-48
2024/01/01 08:06:10;;;;;;;8.02;4.70;;;18.10;62.10;;;;;;5076990;28;20613;-53
2024/01/01 08:08:35;;;;;;;7.60;4.18;;;18.00;62.10;;;;;;5067994;28;20033;-49
2024/01/01 08:11:01;;;;;;;6.30;4.75;;;18.10;62.10;;;;;;5072865;28;20506;-46
2024/01/01 08:13:27;;;;;;;6.53;4.55;;;18.10;62.20;;;;;;5075011;28;20028;-49
2024/01/01 08:15:52;;;;;;;5.25;4.28;;;18.10;62.20;;;;;;5074871;28;20028;-54
2024/01/01 08:18:18;;;;;;;7.28;4.80;;;18.10;62.10;;;;;;5079632;28;20283;-50
2024/01/01 08:20:43;;;;;;;7.40;4.00;;;18.10;62.10;;;;;;5076789;28;20036;-47
2024/01/01 08:23:09;;;;;;;7.07;4.78;;;18.10;62.10;;;;;;5077673;28;20039;-49
2024/01/01 08:25:35;;;;;;;7.38;4.82;;;18.10;62.10;;;;;;5079034;28;20041;-48
2024/01/01 08:28:01;;;;;;;6.68;4.40;;;18.10;62.10;;;;;;5082354;28;20028;-51
2024/01/01 08:30:26;;;;;;;6.53;4.25;;;18.10;62.10;;;;;;5062135;28;20032;-51
2024/01/01 08:32:51;;;;;;;6.35;4.68;;;18.10;62.20;;;;;;5073902;28;20028;-50
2024/01/01 08:35:17;;;;;;;5.88;4.10;;;18.10;62.20;;;;;;5077570;28;20038;-49
2024/01/01 08:37:43;;;;;;;5.40;4.32;;;18.10;62.20;;;;;;5080217;28;20032;-48
2024/01/01 08:40:10;;;;;;;7.75;4.85;;;18.10;62.20;;;;;;5073805;28;20028;-52
2024/01/01 08:42:36;;;;;;;6.65;4.50;;;18.10;62.20;;;;;;5076307;28;20043;-52
2024/01/01 08:45:05;;;;;;;6.10;4.43;;;18.10;62.20;;;;;;5079842;28;20527;-52
2024/01/01 08:47:31;;;;;;;10.43;4.82;;;18.10;62.30;;;;;;5078979;28;20043;-50
2024/01/01 08:49:56;;;;;;;6.90;4.57;;;18.00;62.20;;;;;;5080638;28;20036;-51
2024/01/01 08:52:22;;;;;;;8.45;4.60;;;18.10;62.30;;;;;;5074862;28;20067;-46
2024/01/01 08:54:48;;;;;;;13.68;5.20;;;18.10;62.50;;;;;;5082061;28;20123;-52
2024/01/01 08:57:14;;;;;;;9.02;5.05;;;18.10;62.60;;;;;;5081727;28;20115;-47
2024/01/01 08:59:39;;;;;;;9.90;4.90;;;18.10;62.70;;;;;;5081755;28;20460;-52
2024/01/01 09:02:06;;;;;;;9.13;5.50;;;18.10;63.10;;;;;;5074482;28;20136;-46
2024/01/01 09:04:32;;;;;;;13.88;6.20;;;18.10;63.50;;;;;;5075879;28;20041;-49
2024/01/01 09:07:00;;;;;;;13.63;6.60;;;18.10;63.80;;;;;;5077049;28;20555;-53
2024/01/01 09:09:26;;;;;;;11.65;6.20;;;18.20;63.80;;;;;;5078041;28;20036;-50
2024/01/01 09:11:52;;;;;;;17.75;7.80;;;18.10;63.90;;;;;;5073222;28;20083;-49
2024/01/01 09:14:18;;;;;;;11.60;6.97;;;18.20;63.90;;;;;;5075588;28;20516;-48
2024/01/01 09:16:43;;;;;;;14.23;8.40;;;18.10;63.90;;;;;;5077373;28;20101;-47
2024/01/01 09:19:09;;;;;;;13.30;6.95;;;18.20;63.90;;;;;;5078678;28;20036;-47
2024/01/01 09:21:34;;;;;;;14.95;7.47;;;18.20;63.80;;;;;;5074712;28;20025;-51
2024/01/01 09:24:02;;;;;;;12.05;7.40;;;18.20;63.70;;;;;;5071955;28;20572;-48
2024/01/01 09:26:29;;;;;;;9.48;6.53;;;18.20;63.60;;;;;;5074444;28;20032;-46
2024/01/01 09:28:56;;;;;;;11.32;6.47;;;18.20;63.50;;;;;;5075315;28;20467;-47
2024/01/01 09:31:21;;;;;;;11.30;6.85;;;18.20;63.40;;;;;;5060851;28;20032;-51
2024/01/01 09:33:47;;;;;;;9.52;6.40;;;18.20;63.40;;;;;;5073359;28;20032;-52
2024/01/01 09:36:13;;;;;;;9.50;6.43;;;18.20;63.30;;;;;;5073617;28;20206;-50
2024/01/01 09:38:39;;;;;;;10.07;6.40;;;18.20;63.30;;;;;;5073797;28;20066;-48
2024/01/01 09:41:05;;;;;;;11.50;6.45;;;18.20;63.30;;;;;;5076440;28;20032;-52
2024/01/01 09:43:30;;;;;;;12.48;8.20;;;18.20;63.40;;;;;;5069129;28;20028;-51
2024/01/01 09:45:57;;;;;;;13.63;8.50;;;18.20;63.50;;;;;;5074409;28;20032;-49
2024/01/01 09:48:23;;;;;;;13.13;7.47;;;18.10;63.20;;;;;;5076791;28;20048;-51
2024/01/01 09:50:51;;;;;;;15.40;8.13;;;18.20;63.30;;;;;;5046485;28;20111;-48
2024/01/01 09:53:19;;;;;;;13.40;8.05;;;18.20;63.20;;;;;;5075272;28;20512;-47
2024/01/01 09:55:52;;;;;;;17.17;9.40;;;18.20;63.20;;;;;;5067414;28;20148;-49
2024/01/01 09:58:18;;;;;;;15.68;9.13;;;18.20;63.10;;;;;;5078447;28;20063;-51
2024/01/01 10:00:43;;;;;;;18.25;9.80;;;18.20;63.20;;;;;;5078282;28;20056;-48
2024/01/01 10:03:10;;;;;;;18.45;10.15;;;18.20;63.10;;;;;;5079019;28;20655;-45
2024/01/01 10:05:39;;;;;;;20.27;10.48;;;18.10;63.10;;;;;;5075974;28;20035;-45
2024/01/01 10:08:09;;;;;;;34.88;15.63;;;18.20;63.10;;;;;;5079530;28;20032;-45
2024/01/01 10:10:39;;;;;;;81.63;38.70;;;18.10;63.10;;;;;;5059017;28;20550;-48
2024/01/01 10:13:13;;;;;;;94.07;41.10;;;18.10;63.40;;;;;;5078649;28;20055;-45
2024/01/01 10:15:40;;;;;;;104.72;49.88;;;18.10;63.50;;;;;;5069837;28;20489;-52
2024/01/01 10:18:16;;;;;;;121.43;54.72;;;18.10;63.60;;;;;;5072060;28;20039;-45
2024/01/01 10:20:43;;;;;;;136.63;60.28;;;18.10;63.80;;;;;;5076854;28;20032;-56
2024/01/01 10:23:20;;;;;;;156.38;71.00;;;18.10;64.00;;;;;;5075352;28;20032;-53
2024/01/01 10:26:00;;;;;;;165.88;75.75;;;18.10;64.10;;;;;;5058085;28;20031;-51
2024/01/01 10:28:29;;;;;;;178.68;82.00;;;18.10;64.30;;;;;;5079049;28;20028;-53
2024/01/01 10:30:54;;;;;;;191.75;86.95;;;18.20;64.40;;;;;;5062979;28;20380;-47
2024/01/01 10:33:21;;;;;;;196.13;87.82;;;18.20;64.50;;;;;;5080762;28;20688;-47
2024/01/01 10:35:47;;;;;;;194.52;89.82;;;18.20;64.60;;;;;;5070552;28;20111;-50
2024/01/01 10:38:13;;;;;;;195.82;90.85;;;18.10;64.60;;;;;;5070708;28;20849;-49
2024/01/01 10:40:40;;;;;;;197.52;90.55;;;18.20;64.70;;;;;;5077075;28;20050;-49
2024/01/01 10:43:07;;;;;;;205.10;89.72;;;18.20;64.80;;;;;;5079398;28;20118;-45
2024/01/01 10:45:33;;;;;;;212.25;92.85;;;18.20;64.60;;;;;;5069553;28;20032;-54
2024/01/01 10:48:01;;;;;;;185.43;90.97;;;18.20;64.80;;;;;;5070389;28;20055;-50
2024/01/01 10:50:31;;;;;;;193.38;87.63;;;18.20;64.80;;;;;;5074226;28;20032;-52
2024/01/01 10:53:21;;;;;;;186.93;87.65;;;18.20;64.70;;;;;;5076215;28;20135;-56
2024/01/01 10:56:05;;;;;;;192.30;86.10;;;18.20;64.70;;;;;;5025969;28;20206;-51
2024/01/01 10:59:07;;;;;;;186.10;83.97;;;18.20;64.60;;;;;;5072397;28;20040;-54
2024/01/01 11:01:37;;;;;;;171.98;77.93;;;18.20;64.40;;;;;;5073058;28;20115;-51
2024/01/01 11:04:03;;;;;;;173.52;77.47;;;18.20;64.40;;;;;;5075669;28;20507;-46
2024/01/01 11:06:31;;;;;;;160.82;76.07;;;18.20;64.30;;;;;;5076672;28;20658;-45
2024/01/01 11:09:15;;;;;;;161.90;74.45;;;18.10;64.20;;;;;;5073303;28;20071;-51
2024/01/01 11:11:53;;;;;;;157.32;74.30;;;18.10;64.20;;;;;;5074905;28;20533;-53
2024/01/01 11:14:26;;;;;;;151.77;72.43;;;18.10;64.10;;;;;;5075776;28;20047;-45
2024/01/01 11:16:54;;;;;;;137.20;65.38;;;18.10;64.10;;;;;;5069012;28;20357;-50
2024/01/01 11:19:34;;;;;;;139.50;64.18;;;18.20;64.00;;;;;;5073293;28;20034;-50
2024/01/01 11:22:29;;;;;;;126.18;60.72;;;18.20;64.00;;;;;;5070135;28;20044;-53
2024/01/01 11:24:55;;;;;;;121.00;56.67;;;18.20;63.80;;;;;;5070908;28;20073;-48
2024/01/01 11:27:34;;;;;;;112.22;54.35;;;18.20;63.50;;;;;;5073541;28;20265;-59
2024/01/01 11:30:05;;;;;;;102.15;49.92;;;18.20;63.20;;;;;;5070043;28;20056;-47
2024/01/01 11:32:31;;;;;;;99.65;47.33;;;18.10;63.00;;;;;;5072931;28;20069;-48
2024/01/01 11:35:20;;;;;;;105.05;48.25;;;18.20;63.00;;;;;;5075545;28;20040;-47
2024/01/01 11:37:46;;;;;;;103.63;45.53;;;18.10;62.80;;;;;;5065666;28;20105;-48
2024/01/01 11:40:12;;;;;;;97.15;45.95;;;18.20;62.90;;;;;;5072201;28;20271;-47
2024/01/01 11:42:40;;;;;;;96.00;43.63;;;18.20;62.90;;;;;;5072322;28;20039;-49
2024/01/01 11:45:16;;;;;;;92.28;43.58;;;18.20;62.90;;;;;;5073982;28;20700;-48
2024/01/01 11:47:43;;;;;;;83.25;39.53;;;18.20;62.90;;;;;;5075665;28;20032;-48
2024/01/01 11:50:10;;;;;;;82.38;38.40;;;18.20;62.90;;;;;;5054843;28;20032;-47
2024/01/01 11:52:35;;;;;;;82.15;39.95;;;18.10;62.80;;;;;;5073608;28;20443;-47
2024/01/01 11:55:01;;;;;;;86.95;40.92;;;18.20;62.80;;;;;;5080677;28;20482;-48
2024/01/01 11:57:27;;;;;;;73.97;37.13;;;18.20;62.80;;;;;;5080788;28;20040;-50
2024/01/01 11:59:53;;;;;;;70.75;35.80;;;18.20;62.70;;;;;;5074306;28;20039;-46
2024/01/01 12:02:19;;;;;;;67.03;34.72;;;18.20;62.70;;;;;;5078414;28;20085;-47
2024/01/01 12:04:46;;;;;;;73.80;35.53;;;18.20;62.70;;;;;;5059435;28;20032;-47
2024/01/01 12:07:32;;;;;;;69.95;35.25;;;18.20;62.70;;;;;;5081212;28;20545;-47
2024/01/01 12:10:08;;;;;;;69.20;35.83;;;18.10;62.70;;;;;;5074246;28;20508;-48
2024/01/01 12:12:35;;;;;;;65.53;32.15;;;18.10;62.80;;;;;;5070578;28;20417;-45
2024/01/01 12:15:11;;;;;;;66.88;31.05;;;18.00;62.80;;;;;;5078774;28;20390;-53
2024/01/01 12:17:38;;;;;;;66.63;29.77;;;18.00;62.80;;;;;;5077318;28;20036;-46
2024/01/01 12:20:05;;;;;;;69.35;33.85;;;18.00;63.00;;;;;;5079421;28;20085;-51
2024/01/01 12:22:31;;;;;;;67.28;30.00;;;18.10;64.00;;;;;;5072937;28;20028;-47
2024/01/01 12:24:57;;;;;;;70.88;33.75;;;18.10;64.50;;;;;;5076327;28;20042;-48
2024/01/01 12:27:22;;;;;;;68.15;33.10;;;18.10;64.90;;;;;;5075407;28;20314;-47
2024/01/01 12:29:51;;;;;;;65.35;30.52;;;18.20;65.50;;;;;;5074663;28;20081;-48
2024/01/01 12:32:17;;;;;;;63.30;31.98;;;18.20;65.50;;;;;;5072868;28;20638;-50
2024/01/01 12:34:43;;;;;;;59.00;30.00;;;18.30;65.50;;;;;;5074201;28;20033;-47